Time;durP1;ratioP1;P1;durP2;ratioP2;P2;SDS_P1;SDS_P2;PMS_P1;PMS_P2;Temp;Humidity;BMP_temperature;BMP_pressure;BME280_temperature;BME280_humidity;BME280_pressure;Samples;Min_cycle;Max_cycle;Signal;HPM_P1;HPM_P2
2022/03/27 00:02:18;;;;;;;4.40;2.10;;;8.70;99.90;;;;;;5003671;28;20067;-75
2022/03/27 00:04:44;;;;;;;4.28;2.67;;;8.70;99.90;;;;;;5003373;28;20037;-75
2022/03/27 00:07:10;;;;;;;6.22;3.72;;;8.70;99.90;;;;;;5030698;28;20037;-75
2022/03/27 00:09:36;;;;;;;4.78;3.80;;;8.70;99.90;;;;;;5031841;28;20026;-75
2022/03/27 00:12:02;;;;;;;7.63;5.30;;;8.70;99.90;;;;;;5032251;28;20396;-75
2022/03/27 00:14:28;;;;;;;7.63;4.70;;;8.70;99.90;;;;;;5018546;28;20060;-75
2022/03/27 00:16:53;;;;;;;6.90;4.43;;;8.70;99.90;;;;;;5013405;28;20171;-75
2022/03/27 00:19:20;;;;;;;6.80;4.80;;;8.70;99.90;;;;;;5012962;28;20064;-77
2022/03/27 00:21:46;;;;;;;6.07;3.75;;;8.60;99.90;;;;;;5031345;28;20083;-76
2022/03/27 00:24:11;;;;;;;5.43;3.38;;;8.70;99.90;;;;;;5018729;28;20037;-75
2022/03/27 00:26:37;;;;;;;8.23;6.05;;;8.70;99.90;;;;;;5031381;28;20394;-75
2022/03/27 00:29:02;;;;;;;4.75;3.72;;;8.70;99.90;;;;;;5031473;28;20013;-75
2022/03/27 00:31:35;;;;;;;6.63;4.38;;;8.70;99.90;;;;;;5030689;28;20029;-75
2022/03/27 00:34:02;;;;;;;4.95;3.50;;;8.60;99.90;;;;;;5031093;28;20040;-74
2022/03/27 00:36:28;;;;;;;7.03;4.40;;;8.70;99.90;;;;;;5013208;28;20037;-75
2022/03/27 00:38:54;;;;;;;7.90;4.32;;;8.60;99.90;;;;;;5030972;28;21094;-75
2022/03/27 00:41:19;;;;;;;8.45;6.25;;;8.70;99.90;;;;;;5012981;28;20033;-75
2022/03/27 00:43:45;;;;;;;8.30;5.38;;;8.70;99.90;;;;;;5013911;28;20036;-76
2022/03/27 00:46:11;;;;;;;6.35;4.78;;;8.60;99.90;;;;;;5018933;28;20040;-76
2022/03/27 00:48:37;;;;;;;5.47;4.10;;;8.60;99.90;;;;;;5013833;28;20311;-76
2022/03/27 00:51:03;;;;;;;8.07;5.50;;;8.60;99.90;;;;;;5028356;28;20044;-77
2022/03/27 00:53:29;;;;;;;6.90;4.53;;;8.60;99.90;;;;;;5030749;28;20136;-75
2022/03/27 00:55:55;;;;;;;6.07;3.88;;;8.60;99.90;;;;;;5012188;28;20032;-75
2022/03/27 00:58:21;;;;;;;6.70;4.18;;;8.70;99.90;;;;;;5012111;28;20079;-75
2022/03/27 01:00:50;;;;;;;4.88;3.47;;;8.70;99.90;;;;;;5018570;28;20116;-77
2022/03/27 01:03:20;;;;;;;5.68;4.47;;;8.70;99.90;;;;;;5018862;28;20415;-75
2022/03/27 01:05:48;;;;;;;3.40;2.70;;;8.60;99.90;;;;;;4996073;28;20040;-74
2022/03/27 01:08:14;;;;;;;5.63;4.40;;;8.60;99.90;;;;;;4995559;28;20090;-75
2022/03/27 01:10:41;;;;;;;4.15;2.97;;;8.50;99.90;;;;;;5012126;28;20040;-75
2022/03/27 01:13:19;;;;;;;6.03;5.15;;;8.50;99.90;;;;;;4994957;28;20163;-75
2022/03/27 01:15:56;;;;;;;7.75;5.25;;;8.40;99.90;;;;;;5012922;28;20147;-75
2022/03/27 01:18:22;;;;;;;10.80;7.97;;;8.30;99.90;;;;;;5028757;28;20037;-76
2022/03/27 01:20:48;;;;;;;7.50;5.90;;;8.20;99.90;;;;;;5030588;28;20174;-75
2022/03/27 01:23:15;;;;;;;11.32;8.40;;;8.20;99.90;;;;;;5011536;28;20123;-75
2022/03/27 01:25:43;;;;;;;8.38;6.38;;;8.20;99.90;;;;;;4997062;28;20132;-75
2022/03/27 01:28:14;;;;;;;9.35;6.65;;;8.20;99.90;;;;;;5011831;28;20036;-75
2022/03/27 01:30:40;;;;;;;8.82;5.78;;;8.10;99.90;;;;;;5012829;28;20064;-75
2022/03/27 01:33:09;;;;;;;7.53;5.57;;;8.20;99.90;;;;;;5029172;28;20041;-74
2022/03/27 01:35:38;;;;;;;11.90;8.18;;;8.20;99.90;;;;;;4999847;28;20091;-75
2022/03/27 01:38:04;;;;;;;9.18;6.30;;;8.10;99.90;;;;;;5012547;28;20033;-75
2022/03/27 01:40:30;;;;;;;8.15;5.95;;;8.20;99.90;;;;;;5029099;28;20116;-75
2022/03/27 01:42:55;;;;;;;10.73;7.88;;;8.20;99.90;;;;;;5028904;28;20181;-75
2022/03/27 01:45:23;;;;;;;11.75;7.85;;;8.20;99.90;;;;;;5030304;28;20128;-74
2022/03/27 01:47:48;;;;;;;11.52;8.07;;;8.10;99.90;;;;;;5027276;28;20090;-75
2022/03/27 01:50:14;;;;;;;10.85;7.13;;;8.10;99.90;;;;;;5011970;28;20033;-75
2022/03/27 01:52:39;;;;;;;9.48;6.90;;;8.20;99.90;;;;;;5012845;28;20476;-75
2022/03/27 01:55:16;;;;;;;10.35;6.22;;;8.20;99.90;;;;;;5029496;28;20567;-75
2022/03/27 01:57:43;;;;;;;11.45;7.82;;;8.10;99.90;;;;;;5012226;28;20030;-77
2022/03/27 02:00:12;;;;;;;11.68;7.38;;;8.10;99.90;;;;;;5029158;28;20056;-75
2022/03/27 02:02:41;;;;;;;12.02;7.97;;;8.20;99.90;;;;;;5031018;28;20120;-75
2022/03/27 02:05:07;;;;;;;15.38;10.18;;;8.10;99.90;;;;;;4995350;28;20112;-74
2022/03/27 02:07:42;;;;;;;13.88;9.20;;;8.10;99.90;;;;;;5017841;28;20044;-75
2022/03/27 02:10:09;;;;;;;8.85;5.75;;;8.10;99.90;;;;;;5017995;28;20037;-74
2022/03/27 02:12:35;;;;;;;12.85;8.30;;;8.10;99.90;;;;;;5030541;28;20132;-75
2022/03/27 02:15:07;;;;;;;18.65;11.75;;;8.10;99.90;;;;;;5005864;28;20116;-75
2022/03/27 02:17:38;;;;;;;13.48;9.63;;;8.10;99.90;;;;;;5015803;28;20036;-76
2022/03/27 02:20:05;;;;;;;18.20;11.02;;;8.10;99.90;;;;;;4999096;28;20072;-76
2022/03/27 02:22:30;;;;;;;14.98;9.30;;;8.10;99.90;;;;;;5014454;28;20615;-76
2022/03/27 02:24:56;;;;;;;12.18;8.52;;;8.10;99.90;;;;;;5022210;28;20036;-74
2022/03/27 02:27:21;;;;;;;10.80;6.88;;;8.10;99.90;;;;;;5021305;28;20362;-75
2022/03/27 02:29:47;;;;;;;12.60;8.15;;;8.10;99.90;;;;;;5015313;28;20143;-75
2022/03/27 02:32:14;;;;;;;13.18;8.68;;;8.10;99.90;;;;;;5015523;28;20154;-76
2022/03/27 02:34:40;;;;;;;11.73;6.53;;;8.10;99.90;;;;;;5014187;28;20033;-74
2022/03/27 02:37:06;;;;;;;16.85;10.68;;;8.10;99.90;;;;;;5004456;28;20022;-75
2022/03/27 02:39:32;;;;;;;14.70;9.48;;;8.10;99.90;;;;;;5031897;28;20099;-75
2022/03/27 02:41:58;;;;;;;12.93;8.35;;;8.10;99.90;;;;;;5014615;28;20116;-77
2022/03/27 02:44:24;;;;;;;15.45;9.30;;;8.20;99.90;;;;;;5032295;28;20026;-75
2022/03/27 02:46:50;;;;;;;15.77;9.85;;;8.10;99.90;;;;;;5015812;28;20028;-75
2022/03/27 02:49:16;;;;;;;14.38;9.07;;;8.20;99.90;;;;;;5013826;28;20492;-75
2022/03/27 02:51:45;;;;;;;14.48;8.55;;;8.20;99.90;;;;;;5014669;28;20025;-76
2022/03/27 02:54:12;;;;;;;15.27;9.40;;;8.20;99.90;;;;;;5028657;28;20081;-75
2022/03/27 02:56:38;;;;;;;13.27;8.43;;;8.20;99.90;;;;;;4998261;28;20488;-75
2022/03/27 02:59:04;;;;;;;11.27;6.93;;;8.10;99.90;;;;;;5014519;28;20379;-75
2022/03/27 03:01:31;;;;;;;12.38;7.13;;;8.10;99.90;;;;;;5016311;28;20096;-75
2022/03/27 03:03:57;;;;;;;13.18;8.05;;;8.10;99.90;;;;;;5014006;28;20029;-75
2022/03/27 03:06:24;;;;;;;11.80;7.00;;;8.10;99.90;;;;;;5032695;28;20036;-75
2022/03/27 03:08:50;;;;;;;11.93;6.22;;;8.10;99.90;;;;;;5032926;28;20040;-76
2022/03/27 03:11:16;;;;;;;11.10;6.38;;;8.10;99.90;;;;;;5019852;28;20033;-75
2022/03/27 03:13:43;;;;;;;12.93;7.72;;;8.00;99.90;;;;;;5020693;28;20036;-75
2022/03/27 03:16:09;;;;;;;11.18;7.25;;;8.00;99.90;;;;;;5004295;28;20095;-75
2022/03/27 03:18:35;;;;;;;9.63;6.10;;;7.90;99.90;;;;;;5013807;28;20041;-76
2022/03/27 03:21:01;;;;;;;7.78;4.70;;;7.80;99.90;;;;;;5020736;28;20050;-75
2022/03/27 03:23:27;;;;;;;8.32;5.22;;;7.90;99.90;;;;;;4999461;28;20223;-75
2022/03/27 03:25:52;;;;;;;8.40;5.05;;;7.90;99.90;;;;;;5018905;28;20045;-75
2022/03/27 03:28:18;;;;;;;9.57;4.65;;;7.90;99.90;;;;;;5014983;28;20029;-75
2022/03/27 03:30:43;;;;;;;9.50;4.55;;;7.90;99.90;;;;;;5014569;28;20037;-75
2022/03/27 03:33:09;;;;;;;7.63;4.50;;;7.80;99.90;;;;;;5013719;28;20449;-75
2022/03/27 03:35:35;;;;;;;7.25;4.60;;;7.80;99.90;;;;;;5020576;28;20029;-75
2022/03/27 03:38:00;;;;;;;8.18;4.88;;;7.80;99.90;;;;;;4998579;28;20083;-74
2022/03/27 03:40:26;;;;;;;8.52;4.70;;;7.80;99.90;;;;;;5012928;28;20033;-74
2022/03/27 03:42:52;;;;;;;6.78;4.32;;;7.80;99.90;;;;;;5013751;28;20043;-75
2022/03/27 03:45:18;;;;;;;8.60;4.70;;;7.80;99.90;;;;;;5013309;28;20044;-76
2022/03/27 03:47:44;;;;;;;8.77;5.68;;;7.70;99.90;;;;;;5030023;28;20033;-75
2022/03/27 03:50:10;;;;;;;8.40;4.82;;;7.70;99.90;;;;;;5014859;28;20175;-75
2022/03/27 03:52:36;;;;;;;7.28;4.30;;;7.70;99.90;;;;;;5013125;28;20041;-75
2022/03/27 03:55:02;;;;;;;8.68;4.68;;;7.70;99.90;;;;;;5020298;28;20052;-75
2022/03/27 03:57:28;;;;;;;8.45;5.70;;;7.70;99.90;;;;;;5030111;28;20037;-74
2022/03/27 03:59:55;;;;;;;8.68;5.13;;;7.70;99.90;;;;;;5031920;28;20052;-75
2022/03/27 04:02:20;;;;;;;9.95;5.20;;;7.70;99.90;;;;;;5014004;28;20029;-75
2022/03/27 04:04:46;;;;;;;9.80;5.82;;;7.70;99.90;;;;;;5029506;28;20503;-76
2022/03/27 04:07:11;;;;;;;8.70;5.32;;;7.70;99.90;;;;;;4997718;28;20040;-74
2022/03/27 04:09:37;;;;;;;9.52;5.95;;;7.70;99.90;;;;;;5001061;28;20109;-75
2022/03/27 04:12:03;;;;;;;12.20;6.45;;;7.60;99.90;;;;;;5019596;28;20574;-76
2022/03/27 04:14:29;;;;;;;13.90;9.18;;;7.60;99.90;;;;;;5013796;28;20102;-74
2022/03/27 04:16:56;;;;;;;15.43;9.07;;;7.50;99.90;;;;;;5002785;28;20034;-74
2022/03/27 04:19:22;;;;;;;12.38;6.78;;;7.50;99.90;;;;;;5017961;28;20518;-75
2022/03/27 04:21:47;;;;;;;13.07;8.48;;;7.50;99.90;;;;;;5012389;28;20171;-75
2022/03/27 04:24:13;;;;;;;11.95;6.97;;;7.40;99.90;;;;;;5030620;28;20045;-75
2022/03/27 04:26:40;;;;;;;10.55;6.03;;;7.40;99.90;;;;;;5031178;28;20032;-75
2022/03/27 04:29:07;;;;;;;11.02;6.97;;;7.40;99.90;;;;;;5012874;28;22145;-75
2022/03/27 04:31:32;;;;;;;7.35;5.05;;;7.30;99.90;;;;;;5012956;28;20124;-75
2022/03/27 04:33:58;;;;;;;8.55;4.80;;;7.40;99.90;;;;;;5019381;28;20021;-74
2022/03/27 04:36:24;;;;;;;7.55;4.55;;;7.30;99.90;;;;;;5012922;28;20394;-75
2022/03/27 04:38:50;;;;;;;7.70;3.97;;;7.30;99.90;;;;;;5019079;28;20033;-75
2022/03/27 04:41:16;;;;;;;7.07;4.20;;;7.30;99.90;;;;;;5013197;28;20505;-75
2022/03/27 04:43:46;;;;;;;6.00;4.00;;;7.10;99.90;;;;;;5013020;28;20028;-74
2022/03/27 04:46:13;;;;;;;6.78;3.70;;;7.10;99.90;;;;;;5030887;28;20450;-74
2022/03/27 04:48:38;;;;;;;6.15;4.05;;;7.10;99.90;;;;;;5031038;28;20033;-75
2022/03/27 04:51:04;;;;;;;7.22;4.70;;;7.10;99.90;;;;;;5029210;28;20044;-75
2022/03/27 04:53:29;;;;;;;8.48;4.40;;;7.00;99.90;;;;;;5013524;28;20037;-74
2022/03/27 04:55:55;;;;;;;8.10;5.40;;;7.00;99.90;;;;;;5031033;28;20029;-76
2022/03/27 04:58:20;;;;;;;8.25;5.45;;;6.90;99.90;;;;;;5011807;28;20400;-74
2022/03/27 05:00:46;;;;;;;8.18;5.22;;;6.90;99.90;;;;;;5013539;28;20041;-75
2022/03/27 05:03:12;;;;;;;7.63;4.55;;;7.00;99.90;;;;;;5028844;28;20034;-74
2022/03/27 05:05:39;;;;;;;8.98;4.95;;;6.90;99.90;;;;;;5016570;28;20021;-74
2022/03/27 05:08:05;;;;;;;7.80;4.63;;;6.90;99.90;;;;;;5013777;28;20037;-75
2022/03/27 05:10:30;;;;;;;8.30;5.07;;;6.90;99.90;;;;;;5031319;28;20040;-75
2022/03/27 05:12:56;;;;;;;7.65;4.68;;;6.90;99.90;;;;;;5012087;28;20028;-74
2022/03/27 05:15:22;;;;;;;7.55;4.63;;;6.90;99.90;;;;;;5019495;28;20876;-74
2022/03/27 05:17:55;;;;;;;7.88;5.13;;;6.90;99.90;;;;;;4996419;28;20044;-74
2022/03/27 05:20:21;;;;;;;8.02;4.55;;;6.90;99.90;;;;;;4995513;28;20461;-75
2022/03/27 05:22:47;;;;;;;8.80;4.85;;;6.80;99.90;;;;;;5012930;28;20686;-75
2022/03/27 05:25:15;;;;;;;10.32;6.18;;;6.80;99.90;;;;;;5029011;28;20043;-75
2022/03/27 05:27:59;;;;;;;10.15;6.35;;;6.80;99.90;;;;;;5002356;28;20116;-74
2022/03/27 05:30:27;;;;;;;10.88;6.95;;;6.80;99.90;;;;;;5030052;28;20137;-75
2022/03/27 05:32:53;;;;;;;9.93;6.15;;;6.80;99.90;;;;;;5011969;28;20053;-75
2022/03/27 05:35:21;;;;;;;11.48;7.32;;;6.80;99.90;;;;;;5029174;28;20043;-75
2022/03/27 05:37:47;;;;;;;12.65;8.68;;;6.70;99.90;;;;;;5011743;28;20037;-74
2022/03/27 05:40:19;;;;;;;9.38;6.18;;;6.60;99.90;;;;;;5013417;28;20057;-75
2022/03/27 05:42:49;;;;;;;8.45;5.55;;;6.70;99.90;;;;;;5027962;28;20083;-74
2022/03/27 05:45:15;;;;;;;8.88;6.05;;;6.60;99.90;;;;;;5002056;28;20564;-75
2022/03/27 05:47:41;;;;;;;8.80;5.75;;;6.60;99.90;;;;;;5011519;28;20030;-75
2022/03/27 05:50:12;;;;;;;7.80;4.60;;;6.60;99.90;;;;;;5019039;28;20519;-74
2022/03/27 05:52:38;;;;;;;8.63;5.50;;;6.60;99.90;;;;;;5027038;28;20489;-74
2022/03/27 05:55:05;;;;;;;8.18;4.63;;;6.70;99.90;;;;;;5011332;28;20052;-74
2022/03/27 05:57:30;;;;;;;7.38;4.93;;;6.70;99.90;;;;;;5011487;28;20456;-75
2022/03/27 05:59:56;;;;;;;9.25;5.57;;;6.60;99.90;;;;;;5016269;28;20064;-74
2022/03/27 06:02:21;;;;;;;8.00;5.10;;;6.60;99.90;;;;;;5027783;28;20485;-74
2022/03/27 06:04:47;;;;;;;7.53;5.28;;;6.60;99.90;;;;;;5011573;28;20091;-74
2022/03/27 06:07:13;;;;;;;6.38;3.97;;;6.70;99.90;;;;;;5029665;28;20029;-74
2022/03/27 06:09:39;;;;;;;6.10;4.00;;;6.80;99.90;;;;;;5011212;28;20036;-74
2022/03/27 06:12:05;;;;;;;5.80;3.88;;;6.80;99.90;;;;;;4996429;28;20025;-74
2022/03/27 06:14:31;;;;;;;5.85;3.63;;;6.90;99.90;;;;;;5000354;28;20094;-75
2022/03/27 06:16:57;;;;;;;6.43;3.70;;;6.80;99.90;;;;;;5031343;28;20029;-74
2022/03/27 06:19:23;;;;;;;6.05;3.90;;;6.80;99.90;;;;;;5016494;28;20048;-74
2022/03/27 06:21:49;;;;;;;7.65;4.70;;;6.80;99.90;;;;;;5030927;28;20051;-75
2022/03/27 06:24:15;;;;;;;4.70;3.00;;;6.90;99.90;;;;;;5028407;28;20240;-74
2022/03/27 06:26:41;;;;;;;4.20;2.30;;;6.80;99.90;;;;;;5011657;28;20313;-74
2022/03/27 06:29:10;;;;;;;6.22;3.67;;;6.70;99.90;;;;;;5010601;28;20033;-76
2022/03/27 06:31:37;;;;;;;5.60;3.35;;;6.70;99.90;;;;;;5016866;28;20102;-74
2022/03/27 06:34:04;;;;;;;5.65;3.10;;;6.90;99.90;;;;;;4995160;28;20033;-75
2022/03/27 06:36:30;;;;;;;8.13;5.75;;;6.80;99.90;;;;;;5028890;28;20053;-76
2022/03/27 06:38:55;;;;;;;10.68;7.00;;;6.80;99.90;;;;;;5011324;28;20116;-74
2022/03/27 06:41:21;;;;;;;10.98;6.38;;;6.70;99.90;;;;;;5011650;28;20037;-74
2022/03/27 06:43:46;;;;;;;9.60;5.40;;;6.80;99.90;;;;;;5011722;28;20127;-74
2022/03/27 06:46:16;;;;;;;7.97;5.63;;;6.90;99.90;;;;;;5011021;28;20143;-76
2022/03/27 06:48:46;;;;;;;8.32;4.60;;;7.00;99.90;;;;;;4991436;28;20053;-77
2022/03/27 06:51:13;;;;;;;10.43;6.38;;;7.20;99.90;;;;;;4994615;28;20089;-75
2022/03/27 06:53:39;;;;;;;8.02;5.22;;;7.30;99.90;;;;;;5028392;28;20053;-78
2022/03/27 06:56:05;;;;;;;7.68;4.25;;;7.60;99.90;;;;;;5012140;28;20191;-76
2022/03/27 06:58:31;;;;;;;6.85;4.50;;;7.90;99.90;;;;;;5004561;28;20038;-77
2022/03/27 07:03:41;;;;;;;7.15;4.55;;;7.70;99.90;;;;;;5031755;28;20032;-76
2022/03/27 07:06:07;;;;;;;5.97;3.80;;;7.60;99.90;;;;;;5018463;28;20450;-77
2022/03/27 07:08:33;;;;;;;7.13;4.18;;;7.50;99.90;;;;;;5031392;28;20028;-74
2022/03/27 07:10:58;;;;;;;8.23;4.78;;;7.50;99.90;;;;;;5020469;28;20037;-75
2022/03/27 07:13:24;;;;;;;7.53;4.40;;;7.50;99.90;;;;;;5003102;28;20112;-74
2022/03/27 07:15:50;;;;;;;8.32;5.13;;;7.40;99.90;;;;;;5014692;28;20033;-74
2022/03/27 07:18:20;;;;;;;8.30;4.82;;;7.40;99.90;;;;;;5012381;28;20026;-73
2022/03/27 07:20:46;;;;;;;13.57;7.60;;;7.40;99.90;;;;;;5033013;28;20029;-74
2022/03/27 07:23:17;;;;;;;10.57;6.15;;;7.20;99.90;;;;;;5012394;28;20041;-75
2022/03/27 07:25:45;;;;;;;13.13;8.55;;;7.20;99.90;;;;;;5014338;28;20119;-74
2022/03/27 07:28:12;;;;;;;13.93;8.90;;;7.10;99.90;;;;;;5013598;28;20029;-74
2022/03/27 07:30:41;;;;;;;13.30;8.18;;;7.30;99.90;;;;;;5018311;28;20322;-74
2022/03/27 07:33:07;;;;;;;15.63;9.77;;;7.50;99.90;;;;;;5017432;28;20033;-74
2022/03/27 07:35:34;;;;;;;18.23;11.70;;;7.60;99.90;;;;;;5013784;28;20473;-74
2022/03/27 07:38:00;;;;;;;19.00;10.98;;;7.50;99.90;;;;;;5013415;28;20074;-74
2022/03/27 07:40:27;;;;;;;18.70;10.80;;;7.50;99.90;;;;;;5031896;28;20433;-74
2022/03/27 07:42:54;;;;;;;14.30;9.05;;;7.60;99.90;;;;;;5021009;28;20621;-74
2022/03/27 07:45:22;;;;;;;15.05;9.13;;;8.00;99.90;;;;;;5030697;28;20409;-74
2022/03/27 07:47:49;;;;;;;15.73;9.50;;;8.10;99.90;;;;;;5001895;28;20029;-74
2022/03/27 07:50:16;;;;;;;11.88;7.20;;;8.30;99.90;;;;;;5018749;28;20363;-74
2022/03/27 07:52:43;;;;;;;11.80;6.53;;;8.40;99.90;;;;;;5013767;28;20033;-74
2022/03/27 07:55:14;;;;;;;9.32;5.70;;;8.50;99.90;;;;;;4995571;28;20139;-75
2022/03/27 07:57:40;;;;;;;9.20;4.80;;;8.80;99.90;;;;;;5029487;28;20510;-74
2022/03/27 08:00:08;;;;;;;7.88;5.25;;;8.90;99.90;;;;;;5029783;28;20036;-74
2022/03/27 08:02:39;;;;;;;10.73;5.55;;;8.80;99.90;;;;;;5013957;28;20041;-75
2022/03/27 08:05:05;;;;;;;7.85;5.10;;;9.00;99.90;;;;;;5002792;28;20030;-75
2022/03/27 08:07:31;;;;;;;9.15;5.30;;;9.00;99.90;;;;;;4994613;28;20082;-75
2022/03/27 08:09:57;;;;;;;10.98;7.05;;;9.00;99.90;;;;;;5028518;28;20042;-75
2022/03/27 08:12:23;;;;;;;11.95;8.20;;;9.00;99.90;;;;;;5028623;28;20036;-75
2022/03/27 08:14:48;;;;;;;18.35;12.05;;;9.00;99.90;;;;;;5017218;28;20091;-75
2022/03/27 08:17:18;;;;;;;14.55;9.50;;;8.60;99.90;;;;;;5018551;28;20026;-75
2022/03/27 08:19:44;;;;;;;17.77;11.43;;;9.10;99.90;;;;;;5029868;28;20040;-75
2022/03/27 08:22:11;;;;;;;15.18;9.68;;;9.10;99.90;;;;;;5016880;28;20117;-74
2022/03/27 08:24:37;;;;;;;11.25;7.75;;;9.40;99.90;;;;;;5011115;28;20035;-75
2022/03/27 08:27:04;;;;;;;18.40;12.30;;;9.80;99.90;;;;;;5016095;28;20460;-76
2022/03/27 08:29:32;;;;;;;13.77;8.50;;;8.90;99.90;;;;;;5027588;28;20045;-75
2022/03/27 08:32:00;;;;;;;11.75;8.02;;;9.50;99.90;;;;;;4994734;28;20101;-75
2022/03/27 08:34:29;;;;;;;11.98;6.97;;;9.80;99.90;;;;;;5011184;28;20129;-75
2022/03/27 08:36:56;;;;;;;8.60;5.72;;;10.10;99.90;;;;;;5009573;28;20040;-76
2022/03/27 08:39:22;;;;;;;8.88;5.95;;;10.10;99.90;;;;;;5028163;28;20377;-75
2022/03/27 08:41:49;;;;;;;11.63;6.82;;;10.20;99.90;;;;;;5029439;28;20021;-75
2022/03/27 08:44:18;;;;;;;12.77;7.82;;;9.90;99.90;;;;;;5026745;28;20127;-75
2022/03/27 08:46:45;;;;;;;10.35;6.80;;;10.00;99.90;;;;;;5026993;28;20044;-75
2022/03/27 08:49:38;;;;;;;9.80;6.50;;;10.20;99.90;;;;;;5009899;28;20036;-75
2022/03/27 08:52:10;;;;;;;8.82;5.65;;;10.50;99.90;;;;;;5012402;28;20455;-75
2022/03/27 08:54:43;;;;;;;10.90;5.90;;;10.70;99.90;;;;;;5018074;28;22486;-75
2022/03/27 08:57:27;;;;;;;15.00;8.52;;;10.60;99.90;;;;;;5028823;28;20068;-75
2022/03/27 08:59:54;;;;;;;12.60;8.07;;;10.50;99.90;;;;;;5011181;28;20053;-76
2022/03/27 09:02:24;;;;;;;7.70;5.72;;;10.50;99.90;;;;;;4996368;28;20556;-75
2022/03/27 09:04:54;;;;;;;10.60;7.43;;;10.60;99.90;;;;;;5029560;28;20037;-75
2022/03/27 09:07:24;;;;;;;9.45;5.60;;;10.60;99.90;;;;;;5029379;28;20021;-74
2022/03/27 09:09:50;;;;;;;8.93;5.40;;;10.80;99.90;;;;;;5028153;28;20033;-75
2022/03/27 09:12:19;;;;;;;8.82;5.32;;;10.80;99.90;;;;;;5017401;28;20346;-75
2022/03/27 09:14:44;;;;;;;8.32;4.88;;;11.00;99.90;;;;;;5009713;28;20116;-75
2022/03/27 09:17:10;;;;;;;6.55;4.40;;;11.40;99.90;;;;;;4992750;28;20035;-75
2022/03/27 09:19:39;;;;;;;5.22;3.08;;;11.40;99.90;;;;;;4991932;28;20364;-75
2022/03/27 09:22:29;;;;;;;5.90;4.13;;;11.50;99.90;;;;;;5026891;28;20083;-75
2022/03/27 09:24:59;;;;;;;4.50;2.53;;;11.70;99.90;;;;;;5016373;28;20059;-75
2022/03/27 09:27:37;;;;;;;12.52;7.63;;;11.60;99.90;;;;;;5008678;28;20041;-76
2022/03/27 09:30:10;;;;;;;8.30;6.25;;;11.10;99.90;;;;;;5009844;28;20037;-75
2022/03/27 09:32:42;;;;;;;6.78;5.45;;;11.50;99.90;;;;;;5028179;28;20477;-75
2022/03/27 09:35:12;;;;;;;7.65;5.40;;;11.80;99.90;;;;;;5026070;28;20029;-75
2022/03/27 09:37:41;;;;;;;10.00;6.30;;;11.60;99.90;;;;;;5027603;28;20116;-75
2022/03/27 09:40:09;;;;;;;7.30;5.32;;;11.60;99.90;;;;;;5027875;28;20438;-76
2022/03/27 09:42:37;;;;;;;5.65;3.75;;;12.00;99.90;;;;;;4993452;28;22206;-75
2022/03/27 09:45:25;;;;;;;5.63;3.72;;;12.20;99.90;;;;;;5004462;28;20433;-74
2022/03/27 09:47:55;;;;;;;7.65;3.53;;;12.20;99.90;;;;;;5009736;28;20104;-75
2022/03/27 09:50:33;;;;;;;4.95;2.90;;;12.60;99.90;;;;;;5009400;28;20075;-76
2022/03/27 09:53:17;;;;;;;5.55;3.40;;;12.60;99.90;;;;;;5008895;28;20529;-75
2022/03/27 09:55:42;;;;;;;6.20;3.95;;;12.60;99.90;;;;;;5009978;28;20041;-76
2022/03/27 09:58:09;;;;;;;6.55;3.85;;;12.50;99.90;;;;;;5028165;28;20033;-77
2022/03/27 10:00:35;;;;;;;4.28;2.45;;;12.70;99.90;;;;;;4994334;28;20045;-76
2022/03/27 10:03:09;;;;;;;5.20;2.40;;;12.90;99.90;;;;;;5013314;28;20064;-75
2022/03/27 10:05:35;;;;;;;6.70;2.55;;;13.20;99.90;;;;;;5009805;28;20033;-76
2022/03/27 10:08:03;;;;;;;3.83;2.70;;;13.10;99.90;;;;;;5027381;28;20037;-76
2022/03/27 10:10:29;;;;;;;5.45;3.78;;;12.90;99.90;;;;;;4997363;28;20033;-76
2022/03/27 10:12:57;;;;;;;4.38;3.03;;;13.10;99.90;;;;;;4999224;28;20033;-76
2022/03/27 10:15:24;;;;;;;10.27;5.85;;;13.00;99.90;;;;;;5015510;28;20326;-75
2022/03/27 10:18:14;;;;;;;6.80;4.00;;;12.80;99.90;;;;;;4988136;28;20087;-76
2022/03/27 10:20:40;;;;;;;6.93;3.78;;;13.10;99.90;;;;;;4991499;28;20068;-75
2022/03/27 10:23:17;;;;;;;8.85;6.20;;;13.40;99.90;;;;;;4996090;28;20040;-74
2022/03/27 10:25:45;;;;;;;8.15;5.18;;;12.90;99.90;;;;;;5026756;28;20040;-75
2022/03/27 10:28:11;;;;;;;8.15;5.82;;;12.90;99.90;;;;;;5008066;28;20126;-74
2022/03/27 10:30:38;;;;;;;6.78;4.18;;;12.90;99.90;;;;;;5013394;28;20025;-76
2022/03/27 10:33:07;;;;;;;6.57;4.10;;;13.40;99.90;;;;;;5017018;28;20482;-76
2022/03/27 10:35:51;;;;;;;8.02;4.10;;;13.40;99.90;;;;;;5029714;28;20021;-75
2022/03/27 10:39:02;;;;;;;12.15;5.68;;;13.40;99.90;;;;;;5028267;28;20033;-75
2022/03/27 10:41:48;;;;;;;6.45;3.25;;;13.10;99.90;;;;;;5013056;28;20083;-75
2022/03/27 10:44:34;;;;;;;7.78;3.05;;;14.00;99.90;;;;;;5029240;28;20043;-74
2022/03/27 10:47:30;;;;;;;6.45;3.00;;;14.30;99.90;;;;;;5012620;28;20033;-75
2022/03/27 10:50:01;;;;;;;7.10;3.28;;;14.00;99.90;;;;;;5020857;28;20048;-76
2022/03/27 10:52:49;;;;;;;6.25;4.05;;;13.90;99.90;;;;;;5028508;28;20033;-76
2022/03/27 10:55:17;;;;;;;5.07;3.50;;;14.00;99.90;;;;;;5005188;28;20077;-76
2022/03/27 10:57:45;;;;;;;5.35;2.78;;;14.20;99.90;;;;;;5010245;28;20029;-78
2022/03/27 11:00:13;;;;;;;4.45;2.70;;;14.40;99.90;;;;;;5030802;28;20114;-76
2022/03/27 11:02:50;;;;;;;10.05;5.68;;;14.70;99.90;;;;;;4995593;28;20032;-75
2022/03/27 11:05:36;;;;;;;8.63;4.25;;;13.80;99.90;;;;;;5028507;28;20041;-75
2022/03/27 11:08:17;;;;;;;6.28;3.53;;;14.40;99.90;;;;;;5031022;28;20032;-76
2022/03/27 11:10:54;;;;;;;6.85;4.20;;;14.40;99.90;;;;;;5011599;28;20372;-76
2022/03/27 11:13:29;;;;;;;5.93;3.33;;;14.40;99.90;;;;;;5013140;28;20028;-75
2022/03/27 11:16:07;;;;;;;5.50;2.63;;;14.60;99.90;;;;;;5018762;28;20409;-75
2022/03/27 11:18:48;;;;;;;3.70;1.55;;;14.70;99.90;;;;;;5017852;28;20482;-75
2022/03/27 11:21:34;;;;;;;6.55;3.90;;;14.80;99.90;;;;;;5013515;28;20057;-75
2022/03/27 11:24:02;;;;;;;5.32;2.83;;;14.50;99.90;;;;;;5014437;28;20043;-76
2022/03/27 11:26:29;;;;;;;5.20;2.10;;;14.80;99.90;;;;;;5029596;28;20033;-76
2022/03/27 11:29:19;;;;;;;5.05;2.40;;;14.70;99.90;;;;;;5030732;28;20084;-76
2022/03/27 11:31:44;;;;;;;4.00;2.08;;;14.90;99.90;;;;;;4998234;28;20796;-76
2022/03/27 11:34:14;;;;;;;4.65;2.00;;;15.10;99.90;;;;;;5029147;28;20191;-76
2022/03/27 11:36:42;;;;;;;4.03;2.08;;;15.00;99.90;;;;;;5027681;28;20875;-77
2022/03/27 11:39:13;;;;;;;5.22;1.92;;;15.30;99.90;;;;;;5028519;28;20087;-77
2022/03/27 11:41:46;;;;;;;4.28;1.85;;;15.40;99.90;;;;;;5011661;28;20112;-77
2022/03/27 11:45:06;;;;;;;4.22;1.73;;;15.50;99.90;;;;;;4994883;28;20492;-77
2022/03/27 11:47:16;;;;;;;2.78;1.02;;;15.40;99.90;;;;;;5017353;28;20044;-78
2022/03/27 11:49:43;;;;;;;7.70;3.17;;;15.50;99.90;;;;;;5017514;28;20041;-77
2022/03/27 11:52:14;;;;;;;3.25;1.60;;;15.20;99.90;;;;;;5028706;28;20041;-77
2022/03/27 11:54:40;;;;;;;4.30;1.55;;;15.40;99.90;;;;;;4994409;28;20176;-78
2022/03/27 11:57:06;;;;;;;3.65;1.70;;;15.50;99.90;;;;;;5012876;28;20063;-80
2022/03/27 11:59:44;;;;;;;2.70;0.90;;;15.60;99.90;;;;;;5030152;28;20045;-79
2022/03/27 12:02:11;;;;;;;3.88;1.10;;;15.70;99.90;;;;;;4981240;28;20037;-79
2022/03/27 12:04:53;;;;;;;5.72;1.48;;;15.80;99.90;;;;;;5002484;28;20040;-80
2022/03/27 12:07:21;;;;;;;6.90;3.20;;;15.70;99.90;;;;;;5002502;28;20032;-81
2022/03/27 12:09:59;;;;;;;7.15;4.75;;;15.10;99.90;;;;;;4997230;28;20021;-79
2022/03/27 12:12:26;;;;;;;8.65;4.30;;;14.80;99.90;;;;;;5028624;28;20486;-81
2022/03/27 12:15:02;;;;;;;8.60;2.90;;;14.70;99.90;;;;;;5011526;28;20033;-80
2022/03/27 12:17:36;;;;;;;4.57;1.73;;;15.70;99.90;;;;;;5011645;28;20040;-79
2022/03/27 12:20:08;;;;;;;3.85;1.42;;;16.20;99.90;;;;;;4996539;28;20127;-81
2022/03/27 12:22:36;;;;;;;4.13;1.58;;;16.70;99.90;;;;;;5010672;28;20036;-82
2022/03/27 12:25:04;;;;;;;2.53;1.15;;;16.70;99.90;;;;;;5002262;28;20565;-81
2022/03/27 12:30:14;;;;;;;2.45;1.00;;;16.90;99.90;;;;;;5030081;28;20037;-82
2022/03/27 12:32:40;;;;;;;4.10;1.15;;;16.80;99.90;;;;;;5013321;28;20037;-81
2022/03/27 12:35:06;;;;;;;3.30;1.48;;;17.00;99.90;;;;;;5012783;28;20036;-81
2022/03/27 12:37:35;;;;;;;4.10;1.10;;;16.70;99.90;;;;;;4999745;28;20044;-81
2022/03/27 12:40:06;;;;;;;4.17;1.23;;;16.50;99.90;;;;;;5031487;28;20049;-81
2022/03/27 12:42:49;;;;;;;4.15;1.45;;;16.50;99.90;;;;;;5030032;28;20044;-80
2022/03/27 12:45:27;;;;;;;4.45;1.35;;;16.50;99.90;;;;;;5013011;28;20102;-80
2022/03/27 12:47:58;;;;;;;3.35;1.20;;;16.50;99.90;;;;;;5027435;28;20473;-80
2022/03/27 12:50:32;;;;;;;5.10;1.77;;;16.50;99.90;;;;;;5001680;28;20034;-80
2022/03/27 12:53:20;;;;;;;6.93;1.20;;;16.40;99.90;;;;;;5017283;28;20033;-81
2022/03/27 12:55:57;;;;;;;7.47;3.72;;;16.80;99.90;;;;;;5028411;28;20049;-80
2022/03/27 12:58:32;;;;;;;5.55;2.20;;;16.10;99.90;;;;;;5028632;28;20124;-80
2022/03/27 13:01:16;;;;;;;5.00;2.42;;;16.30;99.90;;;;;;4994583;28;20175;-81
2022/03/27 13:04:00;;;;;;;5.05;1.85;;;16.00;99.90;;;;;;5011705;28;20342;-81
2022/03/27 13:06:37;;;;;;;3.17;1.23;;;16.20;99.90;;;;;;5017335;28;20087;-80